sensor_id;sensor_type;location;lat;lon;timestamp;pressure;altitude;pressure_sealevel;temperature;humidity
21300;BME280;10809;49.476;11.016;2022-10-26T00:00:13;98437.22;;;11.01;64.34
21300;BME280;10809;49.476;11.016;2022-10-26T00:02:43;98445.25;;;10.99;64.71
21300;BME280;10809;49.476;11.016;2022-10-26T00:05:14;98443.56;;;10.98;64.48
21300;BME280;10809;49.476;11.016;2022-10-26T00:07:44;98437.47;;;10.96;64.50
21300;BME280;10809;49.476;11.016;2022-10-26T00:10:16;98436.72;;;10.94;64.49
21300;BME280;10809;49.476;11.016;2022-10-26T00:12:49;98432.34;;;10.93;64.71
21300;BME280;10809;49.476;11.016;2022-10-26T00:15:20;98429.88;;;10.90;64.68
21300;BME280;10809;49.476;11.016;2022-10-26T00:17:50;98424.66;;;10.89;64.58
21300;BME280;10809;49.476;11.016;2022-10-26T00:20:21;98419.44;;;10.87;64.75
21300;BME280;10809;49.476;11.016;2022-10-26T00:22:51;98430.97;;;10.86;64.85
21300;BME280;10809;49.476;11.016;2022-10-26T00:25:21;98430.19;;;10.84;64.85
21300;BME280;10809;49.476;11.016;2022-10-26T00:27:52;98436.44;;;10.83;64.95
21300;BME280;10809;49.476;11.016;2022-10-26T00:30:22;98434.72;;;10.82;65.12
21300;BME280;10809;49.476;11.016;2022-10-26T00:32:52;98436.53;;;10.82;64.96
21300;BME280;10809;49.476;11.016;2022-10-26T00:35:23;98432.06;;;10.82;65.06
21300;BME280;10809;49.476;11.016;2022-10-26T00:37:54;98422.41;;;10.81;65.12
21300;BME280;10809;49.476;11.016;2022-10-26T00:40:28;98423.38;;;10.80;65.29
21300;BME280;10809;49.476;11.016;2022-10-26T00:42:58;98426.94;;;10.79;65.12
21300;BME280;10809;49.476;11.016;2022-10-26T00:45:30;98436.69;;;10.79;64.89
21300;BME280;10809;49.476;11.016;2022-10-26T00:48:07;98434.13;;;10.77;65.09
21300;BME280;10809;49.476;11.016;2022-10-26T00:50:42;98433.19;;;10.78;65.20
21300;BME280;10809;49.476;11.016;2022-10-26T00:53:14;98427.97;;;10.77;65.08
21300;BME280;10809;49.476;11.016;2022-10-26T00:55:48;98409.44;;;10.77;65.44
21300;BME280;10809;49.476;11.016;2022-10-26T00:58:20;98408.56;;;10.76;65.57
21300;BME280;10809;49.476;11.016;2022-10-26T01:00:51;98398.84;;;10.77;65.46
21300;BME280;10809;49.476;11.016;2022-10-26T01:03:22;98389.09;;;10.77;65.76
21300;BME280;10809;49.476;11.016;2022-10-26T01:05:57;98389.03;;;10.79;65.58
21300;BME280;10809;49.476;11.016;2022-10-26T01:08:28;98389.84;;;10.79;65.63
21300;BME280;10809;49.476;11.016;2022-10-26T01:10:59;98388.00;;;10.81;65.72
21300;BME280;10809;49.476;11.016;2022-10-26T01:13:32;98391.41;;;10.83;65.75
21300;BME280;10809;49.476;11.016;2022-10-26T01:16:25;98384.22;;;10.85;65.75
21300;BME280;10809;49.476;11.016;2022-10-26T01:19:36;98375.34;;;10.86;65.93
21300;BME280;10809;49.476;11.016;2022-10-26T01:22:23;98382.25;;;10.89;65.72
21300;BME280;10809;49.476;11.016;2022-10-26T01:27:38;98389.28;;;10.90;65.94
21300;BME280;10809;49.476;11.016;2022-10-26T01:30:33;98387.47;;;10.90;65.85
21300;BME280;10809;49.476;11.016;2022-10-26T01:33:30;98382.97;;;10.92;65.76
21300;BME280;10809;49.476;11.016;2022-10-26T01:36:06;98376.72;;;10.93;66.13
21300;BME280;10809;49.476;11.016;2022-10-26T01:43:58;98392.59;;;10.93;65.65
21300;BME280;10809;49.476;11.016;2022-10-26T01:46:37;98391.69;;;10.94;66.07
21300;BME280;10809;49.476;11.016;2022-10-26T01:49:13;98386.38;;;10.94;65.99
21300;BME280;10809;49.476;11.016;2022-10-26T01:51:47;98389.88;;;10.95;66.30
21300;BME280;10809;49.476;11.016;2022-10-26T01:54:18;98384.56;;;10.95;66.23
21300;BME280;10809;49.476;11.016;2022-10-26T01:56:55;98379.28;;;10.95;66.13
21300;BME280;10809;49.476;11.016;2022-10-26T02:05:37;98397.72;;;10.96;66.31
21300;BME280;10809;49.476;11.016;2022-10-26T02:11:22;98402.94;;;10.98;66.14
21300;BME280;10809;49.476;11.016;2022-10-26T02:16:55;98406.47;;;10.98;66.33
21300;BME280;10809;49.476;11.016;2022-10-26T02:22:23;98385.28;;;10.98;66.33
21300;BME280;10809;49.476;11.016;2022-10-26T02:24:55;98387.81;;;11.00;66.72
21300;BME280;10809;49.476;11.016;2022-10-26T02:27:30;98371.06;;;10.99;66.70
21300;BME280;10809;49.476;11.016;2022-10-26T02:30:04;98374.59;;;11.00;66.59
21300;BME280;10809;49.476;11.016;2022-10-26T02:32:36;98364.84;;;11.00;66.65
21300;BME280;10809;49.476;11.016;2022-10-26T02:35:08;98377.22;;;11.00;66.81
21300;BME280;10809;49.476;11.016;2022-10-26T02:37:39;98374.50;;;11.01;66.88
21300;BME280;10809;49.476;11.016;2022-10-26T02:40:15;98381.50;;;11.02;66.73
21300;BME280;10809;49.476;11.016;2022-10-26T02:42:49;98386.78;;;11.02;67.06
21300;BME280;10809;49.476;11.016;2022-10-26T02:45:23;98385.88;;;11.03;66.69
21300;BME280;10809;49.476;11.016;2022-10-26T02:47:55;98379.72;;;11.03;66.98
21300;BME280;10809;49.476;11.016;2022-10-26T02:50:32;98375.28;;;11.03;66.98
21300;BME280;10809;49.476;11.016;2022-10-26T02:53:17;98381.50;;;11.02;66.86
21300;BME280;10809;49.476;11.016;2022-10-26T02:55:52;98391.19;;;11.03;66.90
21300;BME280;10809;49.476;11.016;2022-10-26T02:58:26;98385.00;;;11.03;67.06
21300;BME280;10809;49.476;11.016;2022-10-26T03:00:58;98384.06;;;11.04;67.20
21300;BME280;10809;49.476;11.016;2022-10-26T03:03:28;98384.91;;;11.04;66.86
21300;BME280;10809;49.476;11.016;2022-10-26T03:05:59;98388.53;;;11.03;67.57
21300;BME280;10809;49.476;11.016;2022-10-26T03:08:29;98399.94;;;11.04;67.33
21300;BME280;10809;49.476;11.016;2022-10-26T03:10:59;98393.81;;;11.03;67.18
21300;BME280;10809;49.476;11.016;2022-10-26T03:13:30;98395.59;;;11.03;67.52
21300;BME280;10809;49.476;11.016;2022-10-26T03:16:00;98386.78;;;11.02;67.22
21300;BME280;10809;49.476;11.016;2022-10-26T03:18:31;98392.09;;;11.02;67.55
21300;BME280;10809;49.476;11.016;2022-10-26T03:21:01;98394.66;;;11.04;67.21
21300;BME280;10809;49.476;11.016;2022-10-26T03:23:32;98395.53;;;11.04;67.43
21300;BME280;10809;49.476;11.016;2022-10-26T03:26:02;98384.91;;;11.04;67.45
21300;BME280;10809;49.476;11.016;2022-10-26T03:28:34;98385.78;;;11.05;67.65
21300;BME280;10809;49.476;11.016;2022-10-26T03:31:04;98388.34;;;11.06;67.30
21300;BME280;10809;49.476;11.016;2022-10-26T03:33:35;98380.41;;;11.06;67.58
21300;BME280;10809;49.476;11.016;2022-10-26T03:36:06;98383.06;;;11.06;67.67
21300;BME280;10809;49.476;11.016;2022-10-26T03:38:36;98388.34;;;11.06;67.15
21300;BME280;10809;49.476;11.016;2022-10-26T03:41:06;98384.75;;;11.07;67.87
21300;BME280;10809;49.476;11.016;2022-10-26T03:43:37;98382.09;;;11.07;67.86
21300;BME280;10809;49.476;11.016;2022-10-26T03:46:07;98369.72;;;11.08;67.79
21300;BME280;10809;49.476;11.016;2022-10-26T03:48:37;98359.13;;;11.08;68.03
21300;BME280;10809;49.476;11.016;2022-10-26T03:51:08;98366.97;;;11.09;68.15
21300;BME280;10809;49.476;11.016;2022-10-26T03:53:38;98370.56;;;11.08;68.20
21300;BME280;10809;49.476;11.016;2022-10-26T03:56:09;98368.75;;;11.09;68.02
21300;BME280;10809;49.476;11.016;2022-10-26T03:58:39;98380.31;;;11.08;68.33
21300;BME280;10809;49.476;11.016;2022-10-26T04:01:09;98382.97;;;11.08;68.38
21300;BME280;10809;49.476;11.016;2022-10-26T04:03:40;98383.78;;;11.08;68.24
21300;BME280;10809;49.476;11.016;2022-10-26T04:06:10;98371.41;;;11.09;68.31
21300;BME280;10809;49.476;11.016;2022-10-26T04:08:40;98373.19;;;11.08;68.55
21300;BME280;10809;49.476;11.016;2022-10-26T04:11:11;98375.84;;;11.08;68.44
21300;BME280;10809;49.476;11.016;2022-10-26T04:13:41;98379.38;;;11.09;68.82
21300;BME280;10809;49.476;11.016;2022-10-26T04:16:11;98379.38;;;11.09;68.65
21300;BME280;10809;49.476;11.016;2022-10-26T04:18:42;98382.88;;;11.09;68.53
21300;BME280;10809;49.476;11.016;2022-10-26T04:21:12;98372.28;;;11.09;68.69
21300;BME280;10809;49.476;11.016;2022-10-26T04:23:42;98384.56;;;11.10;68.83
21300;BME280;10809;49.476;11.016;2022-10-26T04:26:13;98390.81;;;11.09;68.71
21300;BME280;10809;49.476;11.016;2022-10-26T04:28:43;98390.81;;;11.09;68.74
21300;BME280;10809;49.476;11.016;2022-10-26T04:31:13;98397.81;;;11.10;69.03
21300;BME280;10809;49.476;11.016;2022-10-26T04:33:44;98397.81;;;11.10;68.88
21300;BME280;10809;49.476;11.016;2022-10-26T04:36:14;98398.78;;;11.09;69.02
21300;BME280;10809;49.476;11.016;2022-10-26T04:38:47;98401.44;;;11.09;68.94
21300;BME280;10809;49.476;11.016;2022-10-26T04:41:17;98409.38;;;11.09;69.19
21300;BME280;10809;49.476;11.016;2022-10-26T04:43:47;98401.44;;;11.09;69.07
21300;BME280;10809;49.476;11.016;2022-10-26T04:46:18;98406.63;;;11.11;69.18
21300;BME280;10809;49.476;11.016;2022-10-26T04:48:48;98400.47;;;11.10;69.25
21300;BME280;10809;49.476;11.016;2022-10-26T04:51:19;98392.53;;;11.10;68.99
21300;BME280;10809;49.476;11.016;2022-10-26T04:53:49;98399.59;;;11.10;69.51
21300;BME280;10809;49.476;11.016;2022-10-26T04:56:22;98403.13;;;11.10;69.35
21300;BME280;10809;49.476;11.016;2022-10-26T04:58:53;98404.81;;;11.11;69.16
21300;BME280;10809;49.476;11.016;2022-10-26T05:01:24;98406.63;;;11.11;69.30
21300;BME280;10809;49.476;11.016;2022-10-26T05:03:54;98404.00;;;11.11;69.53
21300;BME280;10809;49.476;11.016;2022-10-26T05:06:25;98403.13;;;11.10;69.50
21300;BME280;10809;49.476;11.016;2022-10-26T05:08:55;98396.88;;;11.11;69.39
21300;BME280;10809;49.476;11.016;2022-10-26T05:11:25;98387.13;;;11.12;69.76
21300;BME280;10809;49.476;11.016;2022-10-26T05:13:56;98392.44;;;11.12;69.84
21300;BME280;10809;49.476;11.016;2022-10-26T05:16:26;98388.84;;;11.13;69.63
21300;BME280;10809;49.476;11.016;2022-10-26T05:18:56;98394.13;;;11.13;69.53
21300;BME280;10809;49.476;11.016;2022-10-26T05:21:27;98395.00;;;11.13;70.00
21300;BME280;10809;49.476;11.016;2022-10-26T05:23:57;98398.50;;;11.14;69.84
21300;BME280;10809;49.476;11.016;2022-10-26T05:26:28;98397.56;;;11.15;70.07
21300;BME280;10809;49.476;11.016;2022-10-26T05:28:58;98401.06;;;11.15;70.02
21300;BME280;10809;49.476;11.016;2022-10-26T05:31:28;98398.44;;;11.15;69.99
21300;BME280;10809;49.476;11.016;2022-10-26T05:33:59;98399.19;;;11.17;70.00
21300;BME280;10809;49.476;11.016;2022-10-26T05:36:29;98400.91;;;11.18;69.87
21300;BME280;10809;49.476;11.016;2022-10-26T05:38:59;98411.41;;;11.20;70.18
21300;BME280;10809;49.476;11.016;2022-10-26T05:41:30;98411.41;;;11.20;70.29
21300;BME280;10809;49.476;11.016;2022-10-26T05:44:00;98404.31;;;11.20;70.13
21300;BME280;10809;49.476;11.016;2022-10-26T05:46:31;98408.69;;;11.21;70.57
21300;BME280;10809;49.476;11.016;2022-10-26T05:49:01;98401.56;;;11.22;70.40
21300;BME280;10809;49.476;11.016;2022-10-26T05:51:32;98401.50;;;11.23;70.27
21300;BME280;10809;49.476;11.016;2022-10-26T05:54:04;98401.50;;;11.23;70.21
21300;BME280;10809;49.476;11.016;2022-10-26T05:56:36;98393.56;;;11.23;70.16
21300;BME280;10809;49.476;11.016;2022-10-26T05:59:15;98397.06;;;11.24;70.07
21300;BME280;10809;49.476;11.016;2022-10-26T06:04:56;98392.63;;;11.24;70.41
21300;BME280;10809;49.476;11.016;2022-10-26T06:07:31;98393.47;;;11.25;70.24
21300;BME280;10809;49.476;11.016;2022-10-26T06:10:03;98399.63;;;11.25;70.56
21300;BME280;10809;49.476;11.016;2022-10-26T06:12:34;98407.59;;;11.25;70.49
21300;BME280;10809;49.476;11.016;2022-10-26T06:15:05;98410.25;;;11.25;70.41
21300;BME280;10809;49.476;11.016;2022-10-26T06:30:59;98416.88;;;11.32;71.18
21300;BME280;10809;49.476;11.016;2022-10-26T06:33:30;98407.16;;;11.33;71.27
21300;BME280;10809;49.476;11.016;2022-10-26T06:38:43;98410.50;;;11.37;71.34
21300;BME280;10809;49.476;11.016;2022-10-26T06:41:14;98410.31;;;11.40;71.61
21300;BME280;10809;49.476;11.016;2022-10-26T06:43:48;98411.09;;;11.42;71.39
21300;BME280;10809;49.476;11.016;2022-10-26T06:54:59;98414.13;;;11.50;71.12
21300;BME280;10809;49.476;11.016;2022-10-26T06:57:34;98412.25;;;11.52;71.30
21300;BME280;10809;49.476;11.016;2022-10-26T07:00:13;98405.09;;;11.54;71.49
21300;BME280;10809;49.476;11.016;2022-10-26T07:02:44;98408.47;;;11.56;71.39
21300;BME280;10809;49.476;11.016;2022-10-26T07:05:15;98405.66;;;11.59;71.47
21300;BME280;10809;49.476;11.016;2022-10-26T07:07:46;98405.56;;;11.60;71.58
21300;BME280;10809;49.476;11.016;2022-10-26T07:10:17;98424.81;;;11.64;71.74
21300;BME280;10809;49.476;11.016;2022-10-26T07:12:47;98430.91;;;11.66;71.79
21300;BME280;10809;49.476;11.016;2022-10-26T07:15:18;98444.06;;;11.67;71.86
21300;BME280;10809;49.476;11.016;2022-10-26T07:17:49;98442.94;;;11.71;71.94
21300;BME280;10809;49.476;11.016;2022-10-26T07:20:20;98440.19;;;11.73;71.85
21300;BME280;10809;49.476;11.016;2022-10-26T07:22:52;98442.75;;;11.74;72.16
21300;BME280;10809;49.476;11.016;2022-10-26T07:25:24;98456.72;;;11.78;72.25
21300;BME280;10809;49.476;11.016;2022-10-26T07:27:58;98454.63;;;11.83;72.22
21300;BME280;10809;49.476;11.016;2022-10-26T07:30:29;98455.31;;;11.86;72.28
21300;BME280;10809;49.476;11.016;2022-10-26T07:33:02;98462.22;;;11.89;72.14
21300;BME280;10809;49.476;11.016;2022-10-26T07:35:33;98461.22;;;11.91;71.93
21300;BME280;10809;49.476;11.016;2022-10-26T07:38:04;98467.28;;;11.93;72.43
21300;BME280;10809;49.476;11.016;2022-10-26T07:40:35;98468.03;;;11.95;72.29
21300;BME280;10809;49.476;11.016;2022-10-26T07:43:06;98467.94;;;11.97;72.11
21300;BME280;10809;49.476;11.016;2022-10-26T07:45:36;98474.13;;;11.97;71.97
21300;BME280;10809;49.476;11.016;2022-10-26T07:48:07;98488.91;;;12.01;72.24
21300;BME280;10809;49.476;11.016;2022-10-26T07:50:37;98489.78;;;12.02;71.75
21300;BME280;10809;49.476;11.016;2022-10-26T07:53:08;98486.06;;;12.04;72.17
21300;BME280;10809;49.476;11.016;2022-10-26T07:55:38;98487.81;;;12.05;72.05
21300;BME280;10809;49.476;11.016;2022-10-26T07:58:08;98485.06;;;12.07;72.06
21300;BME280;10809;49.476;11.016;2022-10-26T08:00:39;98490.28;;;12.08;72.19
21300;BME280;10809;49.476;11.016;2022-10-26T08:03:09;98491.09;;;12.09;71.77
21300;BME280;10809;49.476;11.016;2022-10-26T08:05:39;98491.97;;;12.09;72.03
21300;BME280;10809;49.476;11.016;2022-10-26T08:08:10;98496.31;;;12.10;71.99
21300;BME280;10809;49.476;11.016;2022-10-26T08:10:44;98495.31;;;12.13;72.07
21300;BME280;10809;49.476;11.016;2022-10-26T08:13:14;98504.97;;;12.14;72.34
21300;BME280;10809;49.476;11.016;2022-10-26T08:15:45;98499.56;;;12.15;72.44
21300;BME280;10809;49.476;11.016;2022-10-26T08:18:16;98505.56;;;12.19;72.16
21300;BME280;10809;49.476;11.016;2022-10-26T08:20:47;98501.97;;;12.20;72.54
21300;BME280;10809;49.476;11.016;2022-10-26T08:23:17;98500.81;;;12.24;72.41
21300;BME280;10809;49.476;11.016;2022-10-26T08:25:47;98507.84;;;12.25;72.34
21300;BME280;10809;49.476;11.016;2022-10-26T08:28:18;98505.94;;;12.27;72.20
21300;BME280;10809;49.476;11.016;2022-10-26T08:30:48;98495.22;;;12.28;72.23
21300;BME280;10809;49.476;11.016;2022-10-26T08:33:19;98496.97;;;12.29;72.27
21300;BME280;10809;49.476;11.016;2022-10-26T08:35:56;98487.19;;;12.30;72.03
21300;BME280;10809;49.476;11.016;2022-10-26T08:38:27;98497.63;;;12.33;72.32
21300;BME280;10809;49.476;11.016;2022-10-26T08:40:58;98494.88;;;12.34;72.38
21300;BME280;10809;49.476;11.016;2022-10-26T08:43:32;98496.59;;;12.35;72.50
21300;BME280;10809;49.476;11.016;2022-10-26T08:46:16;98501.66;;;12.40;72.81
21300;BME280;10809;49.476;11.016;2022-10-26T08:49:16;98491.63;;;12.45;72.73
21300;BME280;10809;49.476;11.016;2022-10-26T08:51:49;98500.94;;;12.52;73.17
21300;BME280;10809;49.476;11.016;2022-10-26T08:54:43;98496.03;;;12.60;72.88
21300;BME280;10809;49.476;11.016;2022-10-26T08:57:25;98508.84;;;12.67;73.07
21300;BME280;10809;49.476;11.016;2022-10-26T09:02:33;98518.53;;;12.82;73.18
21300;BME280;10809;49.476;11.016;2022-10-26T09:05:16;98513.66;;;12.89;72.76
21300;BME280;10809;49.476;11.016;2022-10-26T09:07:54;98516.81;;;12.95;72.82
21300;BME280;10809;49.476;11.016;2022-10-26T09:10:34;98507.63;;;13.01;72.62
21300;BME280;10809;49.476;11.016;2022-10-26T09:13:27;98510.00;;;13.06;72.38
21300;BME280;10809;49.476;11.016;2022-10-26T09:16:19;98515.84;;;13.11;72.22
21300;BME280;10809;49.476;11.016;2022-10-26T09:24:33;98524.03;;;13.22;72.46
21300;BME280;10809;49.476;11.016;2022-10-26T09:29:50;98528.84;;;13.29;72.70
21300;BME280;10809;49.476;11.016;2022-10-26T09:32:29;98540.16;;;13.33;72.54
21300;BME280;10809;49.476;11.016;2022-10-26T09:35:12;98536.34;;;13.37;72.53
21300;BME280;10809;49.476;11.016;2022-10-26T09:37:48;98536.06;;;13.41;72.44
21300;BME280;10809;49.476;11.016;2022-10-26T09:40:32;98534.09;;;13.45;72.60
21300;BME280;10809;49.476;11.016;2022-10-26T09:43:13;98531.16;;;13.49;72.59
21300;BME280;10809;49.476;11.016;2022-10-26T09:45:52;98535.22;;;13.55;72.61
21300;BME280;10809;49.476;11.016;2022-10-26T09:48:32;98541.09;;;13.60;72.51
21300;BME280;10809;49.476;11.016;2022-10-26T09:51:04;98539.94;;;13.64;72.51
21300;BME280;10809;49.476;11.016;2022-10-26T09:53:35;98541.47;;;13.68;72.89
21300;BME280;10809;49.476;11.016;2022-10-26T09:56:10;98552.66;;;13.73;72.62
21300;BME280;10809;49.476;11.016;2022-10-26T09:58:57;98547.03;;;13.77;72.50
21300;BME280;10809;49.476;11.016;2022-10-26T10:01:33;98547.72;;;13.81;72.79
21300;BME280;10809;49.476;11.016;2022-10-26T10:06:50;98554.13;;;13.91;72.76
21300;BME280;10809;49.476;11.016;2022-10-26T10:09:22;98555.56;;;13.96;72.96
21300;BME280;10809;49.476;11.016;2022-10-26T10:11:57;98564.94;;;14.02;72.74
21300;BME280;10809;49.476;11.016;2022-10-26T10:14:38;98561.78;;;14.09;72.99
21300;BME280;10809;49.476;11.016;2022-10-26T10:17:19;98564.91;;;14.16;72.59
21300;BME280;10809;49.476;11.016;2022-10-26T10:19:51;98558.31;;;14.21;72.89
21300;BME280;10809;49.476;11.016;2022-10-26T10:22:25;98563.22;;;14.27;72.63
21300;BME280;10809;49.476;11.016;2022-10-26T10:24:59;98568.13;;;14.33;72.72
21300;BME280;10809;49.476;11.016;2022-10-26T10:27:30;98567.72;;;14.39;72.76
21300;BME280;10809;49.476;11.016;2022-10-26T10:30:27;98559.53;;;14.42;72.29
21300;BME280;10809;49.476;11.016;2022-10-26T10:33:07;98565.44;;;14.47;72.24
21300;BME280;10809;49.476;11.016;2022-10-26T10:35:47;98568.66;;;14.52;72.18
21300;BME280;10809;49.476;11.016;2022-10-26T10:38:20;98571.88;;;14.57;72.16
21300;BME280;10809;49.476;11.016;2022-10-26T10:40:52;98572.50;;;14.61;71.96
21300;BME280;10809;49.476;11.016;2022-10-26T10:43:25;98571.47;;;14.63;71.86
21300;BME280;10809;49.476;11.016;2022-10-26T10:45:57;98569.63;;;14.64;71.64
21300;BME280;10809;49.476;11.016;2022-10-26T10:48:29;98566.88;;;14.65;71.66
21300;BME280;10809;49.476;11.016;2022-10-26T10:51:02;98575.63;;;14.67;71.96
21300;BME280;10809;49.476;11.016;2022-10-26T10:53:50;98565.72;;;14.69;71.54
21300;BME280;10809;49.476;11.016;2022-10-26T10:56:34;98563.78;;;14.71;71.66
21300;BME280;10809;49.476;11.016;2022-10-26T11:07:21;98577.44;;;14.80;71.55
21300;BME280;10809;49.476;11.016;2022-10-26T11:09:54;98580.88;;;14.82;71.80
21300;BME280;10809;49.476;11.016;2022-10-26T11:12:32;98578.94;;;14.84;71.71
21300;BME280;10809;49.476;11.016;2022-10-26T11:15:12;98578.84;;;14.85;71.56
21300;BME280;10809;49.476;11.016;2022-10-26T11:20:28;98583.03;;;14.89;71.60
21300;BME280;10809;49.476;11.016;2022-10-26T11:23:18;98589.19;;;14.90;71.54
21300;BME280;10809;49.476;11.016;2022-10-26T11:26:06;98584.72;;;14.90;71.50
21300;BME280;10809;49.476;11.016;2022-10-26T11:29:01;98591.63;;;14.93;71.16
21300;BME280;10809;49.476;11.016;2022-10-26T11:31:41;98595.28;;;14.92;71.41
21300;BME280;10809;49.476;11.016;2022-10-26T11:34:16;98598.81;;;14.92;71.19
21300;BME280;10809;49.476;11.016;2022-10-26T11:36:55;98595.16;;;14.93;71.55
21300;BME280;10809;49.476;11.016;2022-10-26T11:39:56;98596.13;;;14.92;71.45
21300;BME280;10809;49.476;11.016;2022-10-26T11:43:05;98604.03;;;14.94;71.43
21300;BME280;10809;49.476;11.016;2022-10-26T11:45:44;98595.06;;;14.95;71.63
21300;BME280;10809;49.476;11.016;2022-10-26T11:48:21;98603.81;;;14.97;72.01
21300;BME280;10809;49.476;11.016;2022-10-26T11:50:53;98594.75;;;14.99;71.62
21300;BME280;10809;49.476;11.016;2022-10-26T11:53:38;98600.63;;;15.04;71.94
21300;BME280;10809;49.476;11.016;2022-10-26T11:56:26;98605.66;;;15.09;71.91
21300;BME280;10809;49.476;11.016;2022-10-26T11:59:00;98600.00;;;15.13;71.83
21300;BME280;10809;49.476;11.016;2022-10-26T12:01:32;98604.03;;;15.19;72.15
21300;BME280;10809;49.476;11.016;2022-10-26T12:04:03;98601.03;;;15.23;71.65
21300;BME280;10809;49.476;11.016;2022-10-26T12:06:34;98609.47;;;15.30;71.98
21300;BME280;10809;49.476;11.016;2022-10-26T12:09:11;98611.72;;;15.36;71.91
21300;BME280;10809;49.476;11.016;2022-10-26T12:14:46;98608.44;;;15.45;71.76
21300;BME280;10809;49.476;11.016;2022-10-26T12:17:46;98617.84;;;15.50;71.48
21300;BME280;10809;49.476;11.016;2022-10-26T12:20:34;98628.31;;;15.53;71.35
21300;BME280;10809;49.476;11.016;2022-10-26T12:23:12;98622.66;;;15.58;71.37
21300;BME280;10809;49.476;11.016;2022-10-26T12:25:42;98618.03;;;15.60;70.73
21300;BME280;10809;49.476;11.016;2022-10-26T12:28:40;98618.78;;;15.62;70.88
21300;BME280;10809;49.476;11.016;2022-10-26T12:39:40;98627.22;;;15.68;71.19
21300;BME280;10809;49.476;11.016;2022-10-26T12:58:51;98627.59;;;15.87;71.73
21300;BME280;10809;49.476;11.016;2022-10-26T13:01:39;98626.06;;;15.96;71.61
21300;BME280;10809;49.476;11.016;2022-10-26T13:07:24;98623.16;;;16.11;71.47
21300;BME280;10809;49.476;11.016;2022-10-26T13:09:57;98625.38;;;16.17;71.51
21300;BME280;10809;49.476;11.016;2022-10-26T13:12:37;98623.97;;;16.24;71.47
21300;BME280;10809;49.476;11.016;2022-10-26T13:15:23;98621.59;;;16.32;71.06
21300;BME280;10809;49.476;11.016;2022-10-26T13:18:08;98632.72;;;16.39;71.08
21300;BME280;10809;49.476;11.016;2022-10-26T13:21:03;98636.63;;;16.46;71.25
21300;BME280;10809;49.476;11.016;2022-10-26T13:23:38;98626.22;;;16.54;71.32
21300;BME280;10809;49.476;11.016;2022-10-26T13:26:15;98638.91;;;16.63;71.07
21300;BME280;10809;49.476;11.016;2022-10-26T13:28:50;98628.59;;;16.70;70.92
21300;BME280;10809;49.476;11.016;2022-10-26T13:34:19;98628.31;;;16.85;70.72
21300;BME280;10809;49.476;11.016;2022-10-26T13:36:58;98626.84;;;16.92;70.38
21300;BME280;10809;49.476;11.016;2022-10-26T13:39:35;98621.16;;;16.97;69.83
21300;BME280;10809;49.476;11.016;2022-10-26T13:42:12;98640.41;;;17.02;69.80
21300;BME280;10809;49.476;11.016;2022-10-26T13:44:51;98632.13;;;17.05;69.83
21300;BME280;10809;49.476;11.016;2022-10-26T13:47:30;98636.28;;;17.09;69.76
21300;BME280;10809;49.476;11.016;2022-10-26T13:50:07;98639.56;;;17.12;69.50
21300;BME280;10809;49.476;11.016;2022-10-26T13:52:43;98650.06;;;17.15;69.55
21300;BME280;10809;49.476;11.016;2022-10-26T13:55:23;98646.19;;;17.19;69.34
21300;BME280;10809;49.476;11.016;2022-10-26T14:01:21;98643.91;;;17.26;69.28
21300;BME280;10809;49.476;11.016;2022-10-26T14:03:53;98654.38;;;17.29;69.17
21300;BME280;10809;49.476;11.016;2022-10-26T14:06:32;98647.91;;;17.31;69.09
21300;BME280;10809;49.476;11.016;2022-10-26T14:09:12;98657.53;;;17.34;68.89
21300;BME280;10809;49.476;11.016;2022-10-26T14:11:48;98658.25;;;17.36;68.75
21300;BME280;10809;49.476;11.016;2022-10-26T14:14:23;98663.50;;;17.37;68.80
21300;BME280;10809;49.476;11.016;2022-10-26T14:16:55;98665.22;;;17.38;68.75
21300;BME280;10809;49.476;11.016;2022-10-26T14:19:30;98662.44;;;17.40;68.61
21300;BME280;10809;49.476;11.016;2022-10-26T14:22:03;98670.34;;;17.41;68.63
21300;BME280;10809;49.476;11.016;2022-10-26T14:24:36;98676.28;;;17.45;68.47
21300;BME280;10809;49.476;11.016;2022-10-26T14:27:16;98672.66;;;17.46;68.64
21300;BME280;10809;49.476;11.016;2022-10-26T14:29:48;98679.59;;;17.48;68.15
21300;BME280;10809;49.476;11.016;2022-10-26T14:32:25;98675.09;;;17.49;68.22
21300;BME280;10809;49.476;11.016;2022-10-26T14:34:56;98678.59;;;17.49;68.19
21300;BME280;10809;49.476;11.016;2022-10-26T14:40:04;98687.63;;;17.48;67.67
21300;BME280;10809;49.476;11.016;2022-10-26T14:42:39;98690.53;;;17.45;67.76
21300;BME280;10809;49.476;11.016;2022-10-26T14:47:55;98681.41;;;17.37;67.27
21300;BME280;10809;49.476;11.016;2022-10-26T14:50:27;98686.25;;;17.32;67.42
21300;BME280;10809;49.476;11.016;2022-10-26T14:53:04;98679.66;;;17.25;67.25
21300;BME280;10809;49.476;11.016;2022-10-26T14:55:49;98684.63;;;17.18;67.39
21300;BME280;10809;49.476;11.016;2022-10-26T14:58:28;98692.22;;;17.12;67.35
21300;BME280;10809;49.476;11.016;2022-10-26T15:08:59;98706.59;;;16.87;67.34
21300;BME280;10809;49.476;11.016;2022-10-26T15:11:32;98702.56;;;16.82;67.67
21300;BME280;10809;49.476;11.016;2022-10-26T15:14:10;98713.59;;;16.77;67.77
21300;BME280;10809;49.476;11.016;2022-10-26T15:16:53;98715.75;;;16.72;67.82
21300;BME280;10809;49.476;11.016;2022-10-26T15:19:24;98714.28;;;16.68;67.82
21300;BME280;10809;49.476;11.016;2022-10-26T15:21:56;98727.03;;;16.65;68.20
21300;BME280;10809;49.476;11.016;2022-10-26T15:24:36;98717.53;;;16.61;68.38
21300;BME280;10809;49.476;11.016;2022-10-26T15:27:13;98724.81;;;16.59;68.27
21300;BME280;10809;49.476;11.016;2022-10-26T15:29:47;98728.56;;;16.56;68.28
21300;BME280;10809;49.476;11.016;2022-10-26T15:32:27;98729.66;;;16.54;68.20
21300;BME280;10809;49.476;11.016;2022-10-26T15:37:40;98719.25;;;16.49;68.50